Time;durP1;ratioP1;P1;durP2;ratioP2;P2;SDS_P1;SDS_P2;PMS_P1;PMS_P2;Temp;Humidity;BMP_temperature;BMP_pressure;BME280_temperature;BME280_humidity;BME280_pressure;Samples;Min_cycle;Max_cycle;Signal;HPM_P1;HPM_P2
2022/10/22 00:00:33;;;;;;;5.32;3.25;;;;;;;14.44;86.07;99732.97;5053428;28;20056;-78
2022/10/22 00:03:00;;;;;;;4.78;2.80;;;;;;;14.41;86.60;99730.91;5061070;28;20064;-78
2022/10/22 00:05:28;;;;;;;7.35;2.80;;;;;;;14.42;87.00;99732.50;5072724;28;20063;-78
2022/10/22 00:07:55;;;;;;;3.95;2.38;;;;;;;14.41;85.96;99739.31;5070782;28;20056;-78
2022/10/22 00:10:24;;;;;;;4.97;2.70;;;;;;;14.40;86.31;99740.47;5053232;28;20053;-77
2022/10/22 00:12:51;;;;;;;4.70;2.53;;;;;;;14.40;86.83;99746.06;5052546;28;20056;-79
2022/10/22 00:15:18;;;;;;;4.20;2.80;;;;;;;14.37;86.30;99749.59;5033175;28;20053;-77
2022/10/22 00:17:48;;;;;;;8.77;3.10;;;;;;;14.37;86.94;99750.41;5034456;28;20497;-78
2022/10/22 00:20:16;;;;;;;5.40;2.53;;;;;;;14.37;86.17;99741.19;5058032;28;20057;-78
2022/10/22 00:22:43;;;;;;;4.43;2.50;;;;;;;14.34;87.12;99741.88;5052715;28;20053;-79
2022/10/22 00:25:10;;;;;;;9.02;2.60;;;;;;;14.30;85.94;99746.56;5050712;28;20049;-79
2022/10/22 00:27:39;;;;;;;6.03;2.33;;;;;;;14.30;86.77;99752.19;5053036;28;20397;-79
2022/10/22 00:30:07;;;;;;;5.82;2.65;;;;;;;14.30;86.81;99746.56;5053438;28;20060;-78
2022/10/22 00:32:35;;;;;;;4.50;2.85;;;;;;;14.27;86.31;99747.31;5052640;28;20393;-79
2022/10/22 00:35:02;;;;;;;4.60;2.65;;;;;;;14.26;85.95;99751.25;5048965;28;20053;-78
2022/10/22 00:37:30;;;;;;;6.40;2.75;;;;;;;14.23;85.77;99752.81;5051816;28;20060;-78
2022/10/22 00:39:57;;;;;;;5.90;2.72;;;;;;;14.22;85.96;99756.78;5052512;28;20064;-78
2022/10/22 00:42:28;;;;;;;5.85;2.90;;;;;;;14.21;86.51;99753.19;5052568;28;20485;-78
2022/10/22 00:45:06;;;;;;;7.20;3.25;;;;;;;14.21;86.09;99761.59;5052296;28;20056;-78
2022/10/22 00:47:37;;;;;;;7.15;3.10;;;;;;;14.18;86.12;99756.69;5052824;28;20081;-78
2022/10/22 00:50:07;;;;;;;5.15;3.55;;;;;;;14.19;86.11;99749.91;5053039;28;20056;-78
2022/10/22 00:52:35;;;;;;;6.63;2.88;;;;;;;14.15;87.35;99750.97;5052633;28;20061;-78
2022/10/22 00:55:03;;;;;;;6.07;2.90;;;;;;;14.17;86.97;99755.06;5052263;28;20052;-78
2022/10/22 00:57:31;;;;;;;6.50;3.05;;;;;;;14.20;86.99;99761.94;5052394;28;20052;-78
2022/10/22 00:59:58;;;;;;;8.55;2.53;;;;;;;14.19;86.94;99757.47;5052806;28;20509;-78
2022/10/22 01:02:27;;;;;;;8.77;3.47;;;;;;;14.22;86.98;99759.59;5052319;28;20053;-78
2022/10/22 01:04:55;;;;;;;7.40;3.60;;;;;;;14.20;86.67;99754.34;5052116;28;20068;-78
2022/10/22 01:07:24;;;;;;;6.30;3.45;;;;;;;14.15;85.96;99746.19;5052319;28;20075;-78
2022/10/22 01:10:01;;;;;;;10.32;3.22;;;;;;;14.21;87.37;99743.94;5052123;28;20079;-78
2022/10/22 01:12:40;;;;;;;7.13;2.72;;;;;;;14.20;87.27;99742.31;5052240;28;20056;-78
2022/10/22 01:15:22;;;;;;;5.23;2.97;;;;;;;14.19;86.80;99747.13;5052776;28;20061;-78
2022/10/22 01:17:57;;;;;;;5.90;3.00;;;;;;;14.17;86.76;99754.22;5052140;28;20483;-78
2022/10/22 01:20:47;;;;;;;5.03;2.47;;;;;;;14.13;87.10;99742.94;5052192;28;20064;-78
2022/10/22 01:23:28;;;;;;;5.78;2.53;;;;;;;14.12;87.29;99738.50;5053000;28;20057;-78
2022/10/22 01:26:04;;;;;;;7.10;2.78;;;;;;;14.09;87.34;99733.63;5064996;28;20053;-78
2022/10/22 01:28:51;;;;;;;5.13;2.55;;;;;;;14.06;86.68;99736.31;5050886;28;20053;-78
2022/10/22 01:31:21;;;;;;;7.60;2.95;;;;;;;14.03;87.00;99737.84;5052460;28;20072;-78
2022/10/22 01:33:51;;;;;;;5.68;2.95;;;;;;;14.04;87.44;99733.06;5051935;28;20053;-78
2022/10/22 01:36:19;;;;;;;7.07;3.47;;;;;;;14.05;86.45;99723.47;5052331;28;20413;-78
2022/10/22 01:38:47;;;;;;;5.00;2.65;;;;;;;14.03;86.24;99735.03;5052421;28;20052;-77
2022/10/22 01:41:15;;;;;;;8.02;2.95;;;;;;;14.04;86.41;99727.44;5052146;28;20057;-79
2022/10/22 01:43:44;;;;;;;8.50;2.75;;;;;;;14.01;86.40;99714.97;5052376;28;20069;-80
2022/10/22 01:46:12;;;;;;;7.43;3.67;;;;;;;13.98;86.21;99715.69;5052800;28;20053;-78
2022/10/22 01:48:52;;;;;;;7.23;3.30;;;;;;;13.97;87.16;99716.88;5051840;28;20053;-79
2022/10/22 01:51:29;;;;;;;6.97;3.30;;;;;;;13.94;87.46;99706.34;5055948;28;20478;-79
2022/10/22 01:54:02;;;;;;;7.82;3.60;;;;;;;13.91;87.12;99707.91;5055394;28;20065;-79
2022/10/22 01:56:40;;;;;;;5.30;3.20;;;;;;;13.89;87.30;99703.81;5055579;28;20481;-79
2022/10/22 01:59:17;;;;;;;10.48;4.15;;;;;;;13.86;87.35;99710.13;5055548;28;20064;-79
2022/10/22 02:01:53;;;;;;;6.80;3.40;;;;;;;13.86;86.89;99694.16;5055377;28;20053;-79
2022/10/22 02:04:26;;;;;;;8.23;3.30;;;;;;;13.83;87.08;99697.66;5054428;28;20064;-79
2022/10/22 02:06:57;;;;;;;5.47;3.17;;;;;;;13.80;86.47;99696.38;5055295;28;20057;-79
2022/10/22 02:09:28;;;;;;;5.80;3.33;;;;;;;13.77;86.01;99688.72;5055544;28;20057;-79
2022/10/22 02:11:57;;;;;;;4.28;2.88;;;;;;;13.77;86.04;99691.50;5055580;28;20067;-78
2022/10/22 02:14:29;;;;;;;13.73;4.72;;;;;;;13.75;86.56;99695.81;5055351;28;20061;-79
2022/10/22 02:16:59;;;;;;;6.30;3.47;;;;;;;13.71;85.95;99695.72;5051823;28;20478;-79
2022/10/22 02:19:32;;;;;;;6.70;3.10;;;;;;;13.70;86.41;99701.69;5051348;28;20049;-79
2022/10/22 02:22:00;;;;;;;6.75;3.92;;;;;;;13.72;86.23;99699.34;5055338;28;20071;-80
2022/10/22 02:24:28;;;;;;;7.32;3.47;;;;;;;13.69;87.06;99706.47;5055079;28;20057;-79
2022/10/22 02:27:04;;;;;;;5.32;3.03;;;;;;;13.67;87.17;99702.38;5054924;28;20060;-79
2022/10/22 02:29:39;;;;;;;10.30;4.22;;;;;;;13.65;86.78;99715.91;5035470;28;20057;-79
2022/10/22 02:32:09;;;;;;;6.65;3.30;;;;;;;13.66;87.01;99712.75;5034923;28;20045;-79
2022/10/22 02:34:36;;;;;;;7.47;3.42;;;;;;;13.64;86.49;99703.91;5035341;28;20504;-79
2022/10/22 02:37:06;;;;;;;6.75;3.28;;;;;;;13.64;87.38;99715.09;5034895;28;20061;-80
2022/10/22 02:39:34;;;;;;;7.60;3.15;;;;;;;13.62;87.08;99709.03;5034789;28;20077;-79
2022/10/22 02:42:02;;;;;;;4.30;2.97;;;;;;;13.61;86.58;99707.41;5045996;28;20060;-79
2022/10/22 02:44:29;;;;;;;5.05;3.33;;;;;;;13.59;86.90;99721.75;5055476;28;20061;-79
2022/10/22 02:46:59;;;;;;;7.43;3.40;;;;;;;13.58;87.16;99722.09;5055136;28;20441;-79
2022/10/22 02:49:26;;;;;;;6.45;3.28;;;;;;;13.55;86.77;99723.63;5037282;28;20048;-79
2022/10/22 02:51:53;;;;;;;6.68;3.78;;;;;;;13.54;86.75;99726.78;5054488;28;20064;-80
2022/10/22 02:54:21;;;;;;;5.90;3.20;;;;;;;13.53;87.26;99711.16;5055294;28;20064;-80
2022/10/22 02:56:48;;;;;;;4.97;3.25;;;;;;;13.53;87.17;99714.78;5065133;28;20052;-79
2022/10/22 02:59:15;;;;;;;7.03;3.80;;;;;;;13.52;86.23;99724.34;5074585;28;20481;-78
2022/10/22 03:01:42;;;;;;;6.07;3.00;;;;;;;13.48;86.12;99723.41;5073728;28;20059;-79
2022/10/22 03:04:11;;;;;;;5.72;2.60;;;;;;;13.47;86.21;99721.78;5074035;28;20497;-79
2022/10/22 03:06:38;;;;;;;5.35;2.85;;;;;;;13.45;86.01;99712.91;5073952;28;20053;-79
2022/10/22 03:09:05;;;;;;;6.50;3.00;;;;;;;13.41;86.51;99723.19;5069266;28;20056;-79
2022/10/22 03:11:32;;;;;;;5.72;3.25;;;;;;;13.40;86.58;99722.38;5053539;28;20061;-78
2022/10/22 03:13:59;;;;;;;5.22;3.28;;;;;;;13.39;85.68;99725.50;5054655;28;20053;-79
2022/10/22 03:16:27;;;;;;;6.22;3.47;;;;;;;13.37;86.58;99730.66;5054407;28;20497;-79
2022/10/22 03:18:54;;;;;;;9.65;3.40;;;;;;;13.36;86.61;99737.41;5054316;28;20056;-79
2022/10/22 03:21:29;;;;;;;4.82;3.25;;;;;;;13.35;86.49;99732.97;5053942;28;20509;-79
2022/10/22 03:23:57;;;;;;;7.18;3.03;;;;;;;13.32;86.54;99736.50;5052770;28;20060;-81
2022/10/22 03:26:25;;;;;;;7.28;3.45;;;;;;;13.30;85.96;99739.63;5053769;28;20061;-79
2022/10/22 03:28:54;;;;;;;7.72;3.40;;;;;;;13.28;86.83;99747.53;5054736;28;20057;-79
2022/10/22 03:31:21;;;;;;;8.68;3.70;;;;;;;13.27;86.76;99733.88;5053863;28;20501;-79
2022/10/22 03:33:49;;;;;;;7.35;3.65;;;;;;;13.26;86.91;99727.47;5054010;28;20398;-79
2022/10/22 03:36:23;;;;;;;6.75;3.53;;;;;;;13.22;86.19;99732.16;5053955;28;20417;-80
2022/10/22 03:38:51;;;;;;;7.63;3.90;;;;;;;13.22;87.21;99754.53;5053364;28;20053;-79
2022/10/22 03:41:19;;;;;;;7.85;3.72;;;;;;;13.15;86.51;99746.72;5053855;28;20497;-79
2022/10/22 03:43:50;;;;;;;6.15;3.88;;;;;;;13.11;87.09;99736.59;5052815;28;20083;-79
2022/10/22 03:46:17;;;;;;;6.00;3.67;;;;;;;13.09;86.29;99733.31;5053322;28;20056;-78
2022/10/22 03:48:44;;;;;;;6.50;3.95;;;;;;;13.08;87.62;99737.28;5053792;28;20060;-79
2022/10/22 03:51:12;;;;;;;7.05;4.50;;;;;;;13.04;86.31;99734.38;5053542;28;20056;-79
2022/10/22 03:53:39;;;;;;;6.38;3.60;;;;;;;13.02;87.16;99745.09;5044594;28;20065;-78
2022/10/22 03:56:12;;;;;;;7.38;4.28;;;;;;;12.99;87.22;99746.59;5033919;28;20060;-79
2022/10/22 03:58:41;;;;;;;7.43;4.68;;;;;;;12.99;86.17;99751.38;5057796;28;20056;-79
2022/10/22 04:01:10;;;;;;;6.10;4.40;;;;;;;12.95;86.76;99750.44;5053473;28;20059;-79
2022/10/22 04:03:37;;;;;;;6.70;4.17;;;;;;;12.90;86.59;99745.88;5053612;28;20064;-78
2022/10/22 04:06:07;;;;;;;8.50;4.47;;;;;;;12.88;86.36;99748.22;5053704;28;20059;-79
2022/10/22 04:08:35;;;;;;;5.80;4.47;;;;;;;12.86;86.69;99752.53;5053095;28;20409;-79
2022/10/22 04:11:02;;;;;;;6.50;4.10;;;;;;;12.83;86.15;99758.78;5052956;28;20053;-79
2022/10/22 04:13:31;;;;;;;5.22;3.92;;;;;;;12.80;87.21;99765.91;5051991;28;20053;-78
2022/10/22 04:16:07;;;;;;;7.57;3.97;;;;;;;12.78;87.34;99769.03;5073271;28;20424;-79
2022/10/22 04:18:34;;;;;;;8.75;3.85;;;;;;;12.76;86.42;99764.97;5062587;28;20048;-79
2022/10/22 04:21:01;;;;;;;7.20;3.90;;;;;;;12.75;87.40;99763.34;5072677;28;20060;-79
2022/10/22 04:23:29;;;;;;;5.38;3.95;;;;;;;12.73;86.94;99766.47;5069566;28;20063;-79
2022/10/22 04:25:58;;;;;;;6.00;4.00;;;;;;;12.73;87.03;99768.47;5072961;28;20083;-79
2022/10/22 04:28:25;;;;;;;8.27;4.85;;;;;;;12.74;87.34;99772.88;5072854;28;20053;-78
2022/10/22 04:30:54;;;;;;;10.10;4.90;;;;;;;12.75;88.33;99769.75;5072848;28;20063;-78
2022/10/22 04:33:22;;;;;;;6.50;4.18;;;;;;;12.77;88.11;99767.41;5072738;28;20057;-78
2022/10/22 04:35:49;;;;;;;9.02;4.90;;;;;;;12.80;88.13;99772.31;5054008;28;20448;-79
2022/10/22 04:38:16;;;;;;;7.57;4.15;;;;;;;12.83;87.65;99775.56;5052487;28;20066;-79
2022/10/22 04:40:44;;;;;;;7.38;4.70;;;;;;;12.89;88.46;99777.81;5053009;28;20405;-79
2022/10/22 04:43:11;;;;;;;6.63;4.90;;;;;;;12.93;89.33;99781.50;5052666;28;20053;-79
2022/10/22 04:45:38;;;;;;;8.05;5.85;;;;;;;12.98;89.25;99778.50;5052499;28;20067;-78
2022/10/22 04:48:07;;;;;;;7.90;5.57;;;;;;;13.08;89.19;99768.03;5051306;28;20091;-78
2022/10/22 04:50:35;;;;;;;10.00;6.47;;;;;;;13.19;89.21;99770.03;5050613;28;20053;-80
2022/10/22 04:53:02;;;;;;;8.68;6.07;;;;;;;13.29;90.63;99776.34;5040911;28;20057;-79
2022/10/22 04:55:29;;;;;;;8.63;5.80;;;;;;;13.35;90.45;99781.34;5052650;28;20489;-79
2022/10/22 04:57:56;;;;;;;8.55;5.88;;;;;;;13.42;89.48;99780.78;5060719;28;20057;-79
2022/10/22 05:00:24;;;;;;;8.20;5.88;;;;;;;13.48;89.32;99773.78;5037540;28;20414;-79
2022/10/22 05:02:51;;;;;;;8.85;5.93;;;;;;;13.51;89.23;99781.47;5052467;28;20060;-78
2022/10/22 05:05:20;;;;;;;8.27;6.55;;;;;;;13.56;90.40;99777.59;5052135;28;20057;-79
2022/10/22 05:07:47;;;;;;;9.02;6.80;;;;;;;13.58;89.58;99778.88;5052396;28;20057;-79
2022/10/22 05:10:14;;;;;;;9.10;6.82;;;;;;;13.60;89.24;99784.13;5052604;28;20060;-79
2022/10/22 05:12:41;;;;;;;9.02;6.57;;;;;;;13.62;88.58;99783.78;5052365;28;20053;-79
2022/10/22 05:15:09;;;;;;;10.25;6.55;;;;;;;13.59;88.62;99780.50;5052518;28;20072;-78
2022/10/22 05:17:37;;;;;;;14.40;7.13;;;;;;;13.63;88.58;99785.41;5052479;28;20481;-79
2022/10/22 05:20:05;;;;;;;11.45;7.88;;;;;;;13.64;89.24;99787.84;5072109;28;20057;-79
2022/10/22 05:22:34;;;;;;;12.57;8.23;;;;;;;13.67;91.19;99787.16;5072010;28;20412;-80
2022/10/22 05:25:02;;;;;;;14.30;8.68;;;;;;;13.71;91.33;99793.69;5054723;28;20053;-79
2022/10/22 05:27:29;;;;;;;8.38;6.75;;;;;;;13.77;92.01;99786.69;5056514;28;20059;-79
2022/10/22 05:29:56;;;;;;;10.63;7.65;;;;;;;13.84;90.89;99790.84;5056524;28;20068;-79
2022/10/22 05:32:23;;;;;;;13.80;9.02;;;;;;;13.88;91.08;99794.56;5053577;28;20061;-79
2022/10/22 05:34:50;;;;;;;13.50;8.48;;;;;;;13.93;91.24;99794.34;5053495;28;20056;-79
2022/10/22 05:37:18;;;;;;;14.68;8.20;;;;;;;13.97;91.42;99796.06;5038665;28;20060;-79
2022/10/22 05:39:47;;;;;;;13.23;8.30;;;;;;;14.00;91.78;99791.75;5056184;28;20060;-79
2022/10/22 05:42:14;;;;;;;10.20;6.88;;;;;;;14.04;91.58;99800.25;5056117;28;20064;-79
2022/10/22 05:44:41;;;;;;;13.15;8.82;;;;;;;14.07;91.52;99811.56;5055554;28;20087;-79
2022/10/22 05:47:09;;;;;;;16.67;10.10;;;;;;;14.10;91.42;99807.25;5055685;28;20056;-80
2022/10/22 05:49:37;;;;;;;16.48;9.10;;;;;;;14.17;92.21;99811.06;5055820;28;20064;-78
2022/10/22 05:52:04;;;;;;;13.60;8.30;;;;;;;14.27;93.57;99817.34;5075694;28;20060;-79
2022/10/22 05:54:32;;;;;;;12.35;8.80;;;;;;;14.33;93.92;99827.13;5075600;28;20490;-79
2022/10/22 05:57:00;;;;;;;13.48;8.77;;;;;;;14.42;92.98;99827.78;5075351;28;20065;-79
2022/10/22 05:59:27;;;;;;;10.20;8.35;;;;;;;14.53;94.12;99839.28;5062728;28;20512;-79
2022/10/22 06:01:55;;;;;;;14.57;9.65;;;;;;;14.63;94.09;99840.81;5050825;28;20420;-79
2022/10/22 06:04:22;;;;;;;14.30;8.68;;;;;;;14.75;94.05;99833.16;5054728;28;20057;-79
2022/10/22 06:06:53;;;;;;;14.30;9.07;;;;;;;14.85;94.28;99823.41;5055493;28;20059;-79
2022/10/22 06:09:23;;;;;;;16.08;8.60;;;;;;;14.94;93.16;99829.66;5055143;28;20049;-79
2022/10/22 06:11:51;;;;;;;11.73;7.55;;;;;;;14.99;93.62;99829.41;5055251;28;20079;-80
2022/10/22 06:14:20;;;;;;;12.80;7.80;;;;;;;15.03;92.33;99840.69;5059473;28;20068;-79
2022/10/22 06:16:48;;;;;;;12.70;9.30;;;;;;;15.07;91.80;99847.22;5074940;28;20056;-80
2022/10/22 06:19:18;;;;;;;12.15;9.10;;;;;;;15.12;91.66;99843.31;5069130;28;20059;-79
2022/10/22 06:21:45;;;;;;;;;;;;;;;15.11;90.58;99848.13;5039850;28;20061;-79
2022/10/22 06:24:13;;;;;;;12.90;8.63;;;;;;;15.11;90.52;99845.31;5053439;28;19928;-79
2022/10/22 06:26:41;;;;;;;12.85;9.32;;;;;;;15.10;91.46;99856.91;5043922;28;20049;-80
2022/10/22 06:29:08;;;;;;;14.52;8.68;;;;;;;15.15;91.08;99856.66;5055306;28;20053;-80
2022/10/22 06:31:37;;;;;;;11.75;7.97;;;;;;;15.17;91.62;99863.53;5053916;28;20061;-79
2022/10/22 06:34:05;;;;;;;10.38;7.75;;;;;;;15.27;91.66;99856.56;5054433;28;20064;-79
2022/10/22 06:36:32;;;;;;;10.15;7.72;;;;;;;15.28;91.13;99866.59;5054381;28;20060;-79
2022/10/22 06:39:00;;;;;;;11.85;7.43;;;;;;;15.41;90.25;99872.94;5055348;28;20068;-80
2022/10/22 06:41:27;;;;;;;13.25;7.65;;;;;;;15.60;90.25;99866.59;5055217;28;20072;-79
2022/10/22 06:43:56;;;;;;;10.30;6.22;;;;;;;16.35;88.68;99865.56;5055248;28;20057;-79
2022/10/22 06:46:24;;;;;;;9.52;6.22;;;;;;;17.11;86.02;99867.09;5055562;28;20136;-80
2022/10/22 06:48:56;;;;;;;7.50;5.80;;;;;;;17.87;80.83;99870.06;5055241;28;20056;-79
2022/10/22 06:51:26;;;;;;;7.03;4.80;;;;;;;18.52;77.86;99871.78;5071093;28;20053;-79
2022/10/22 06:53:54;;;;;;;8.75;4.00;;;;;;;18.41;75.67;99879.25;5063813;28;20060;-80
2022/10/22 06:56:23;;;;;;;10.35;4.82;;;;;;;18.61;75.20;99877.91;5055882;28;20064;-80
2022/10/22 06:58:52;;;;;;;6.57;4.18;;;;;;;18.87;74.25;99881.88;5055993;28;20513;-80
2022/10/22 07:01:21;;;;;;;9.55;3.97;;;;;;;19.46;71.38;99891.41;5054814;28;20053;-80
2022/10/22 07:03:50;;;;;;;5.35;3.92;;;;;;;19.82;69.07;99896.56;5054984;28;20060;-80
2022/10/22 07:06:21;;;;;;;4.88;3.72;;;;;;;19.98;68.54;99904.75;5055624;28;20060;-81
2022/10/22 07:08:48;;;;;;;4.88;3.70;;;;;;;20.63;66.94;99908.81;5039296;28;20057;-80
2022/10/22 07:11:17;;;;;;;6.20;3.42;;;;;;;21.53;65.98;99901.44;5036694;28;20041;-81
2022/10/22 07:13:47;;;;;;;8.35;4.22;;;;;;;21.64;62.10;99919.25;5037223;28;20053;-80
2022/10/22 07:16:16;;;;;;;7.57;3.60;;;;;;;22.44;60.75;99915.16;5074826;28;20051;-81
2022/10/22 07:18:44;;;;;;;7.90;3.28;;;;;;;22.18;59.66;99919.25;5077506;28;20032;-80
2022/10/22 07:21:12;;;;;;;5.78;3.50;;;;;;;22.18;61.60;99921.28;5077625;28;20041;-84
2022/10/22 07:23:41;;;;;;;7.57;3.40;;;;;;;21.60;60.21;99923.31;5071911;28;20047;-82
2022/10/22 07:26:09;;;;;;;7.63;2.95;;;;;;;22.51;59.78;99931.38;5076040;28;20063;-81
2022/10/22 07:28:39;;;;;;;4.97;3.03;;;;;;;23.15;55.74;99929.53;5080858;28;20036;-81
2022/10/22 07:31:08;;;;;;;5.25;3.08;;;;;;;23.37;55.21;99935.91;5076413;28;20041;-82
2022/10/22 07:33:36;;;;;;;4.90;2.65;;;;;;;24.34;54.83;99930.28;5077104;28;20055;-80
2022/10/22 07:36:07;;;;;;;7.07;3.17;;;;;;;24.43;51.89;99933.44;5076767;28;20507;-80
2022/10/22 07:38:35;;;;;;;4.70;2.50;;;;;;;24.91;50.64;99937.41;5061445;28;20033;-83
2022/10/22 07:41:04;;;;;;;4.68;2.78;;;;;;;25.20;50.59;99931.31;5072474;28;20836;-81
2022/10/22 07:43:32;;;;;;;8.70;3.30;;;;;;;25.82;48.68;99940.63;5070915;28;20056;-80
2022/10/22 07:46:01;;;;;;;5.50;2.72;;;;;;;25.86;46.73;99952.78;5054225;28;20049;-80
2022/10/22 07:48:29;;;;;;;4.03;3.03;;;;;;;24.49;52.85;99948.06;5055348;28;20064;-80
2022/10/22 07:50:57;;;;;;;5.28;2.80;;;;;;;23.57;55.83;99937.00;5055000;28;20374;-80
2022/10/22 07:53:24;;;;;;;6.90;2.95;;;;;;;22.65;55.56;99954.03;5055181;28;20057;-80
2022/10/22 07:55:52;;;;;;;4.75;2.58;;;;;;;21.91;56.64;99949.25;5052789;28;20519;-81
2022/10/22 07:58:21;;;;;;;8.07;3.15;;;;;;;21.42;58.42;99966.59;5060841;28;20053;-79
2022/10/22 08:00:49;;;;;;;4.63;3.03;;;;;;;21.95;56.92;99967.06;5073601;28;20056;-80
2022/10/22 08:03:18;;;;;;;6.50;2.90;;;;;;;24.13;54.33;99968.31;5065398;28;20048;-79
2022/10/22 08:05:45;;;;;;;5.63;2.63;;;;;;;25.13;50.83;99963.56;5064169;28;20067;-78
2022/10/22 08:08:14;;;;;;;4.50;2.42;;;;;;;25.96;46.61;99962.47;5073240;28;20067;-78
2022/10/22 08:10:41;;;;;;;4.82;2.83;;;;;;;26.57;47.07;99953.66;5060110;28;20049;-78
2022/10/22 08:13:09;;;;;;;4.78;2.15;;;;;;;27.96;43.39;99963.34;5053880;28;20056;-78
2022/10/22 08:15:37;;;;;;;6.28;2.03;;;;;;;28.43;43.74;99962.16;5063495;28;20401;-78
2022/10/22 08:18:05;;;;;;;4.53;1.98;;;;;;;29.42;39.67;99968.38;5053414;28;20057;-79
2022/10/22 08:20:32;;;;;;;5.35;2.15;;;;;;;28.21;40.91;99961.91;5052046;28;20490;-80
2022/10/22 08:23:00;;;;;;;4.45;2.40;;;;;;;28.60;42.22;99963.78;5052554;28;20057;-80
2022/10/22 08:25:27;;;;;;;4.93;2.20;;;;;;;29.68;39.03;99972.88;5052402;28;20063;-80
2022/10/22 08:27:55;;;;;;;5.13;2.03;;;;;;;29.91;37.73;99968.91;5052276;28;20065;-80
2022/10/22 08:30:22;;;;;;;5.10;1.83;;;;;;;29.89;39.88;99980.03;5038531;28;20052;-79
2022/10/22 08:32:51;;;;;;;5.88;2.22;;;;;;;29.17;38.19;99975.69;5062199;28;20505;-81
2022/10/22 08:35:19;;;;;;;5.63;2.58;;;;;;;27.19;40.90;99978.94;5052390;28;20056;-82
2022/10/22 08:37:46;;;;;;;4.40;2.20;;;;;;;26.00;44.04;100001.13;5052590;28;20057;-82
2022/10/22 08:40:21;;;;;;;4.53;2.17;;;;;;;25.59;47.18;99996.38;5052734;28;20057;-80
2022/10/22 08:43:27;;;;;;;7.20;2.10;;;;;;;25.10;45.90;100002.28;5052282;28;20068;-80
2022/10/22 08:46:08;;;;;;;5.28;2.00;;;;;;;23.69;49.82;99996.22;5020381;28;20433;-81
2022/10/22 08:48:45;;;;;;;5.65;2.10;;;;;;;22.91;50.56;100008.75;5052951;28;20053;-80
2022/10/22 08:51:17;;;;;;;9.05;2.25;;;;;;;22.12;53.19;100008.81;5052543;28;20049;-79
2022/10/22 08:53:57;;;;;;;8.73;2.08;;;;;;;21.31;53.60;100022.38;5052412;28;20060;-78
2022/10/22 08:56:25;;;;;;;7.10;2.03;;;;;;;21.04;58.98;100014.19;5032354;28;20060;-79
2022/10/22 08:58:59;;;;;;;5.50;2.40;;;;;;;20.54;59.03;100027.19;5032084;28;20403;-78
2022/10/22 09:01:35;;;;;;;3.67;2.28;;;;;;;20.08;58.24;100031.25;5032453;28;20409;-77
2022/10/22 09:04:11;;;;;;;4.70;2.15;;;;;;;19.70;59.52;100033.31;5048967;28;20053;-78
2022/10/22 09:06:43;;;;;;;7.65;2.38;;;;;;;19.82;59.92;100032.22;5051817;28;20060;-79
2022/10/22 09:09:15;;;;;;;7.30;2.33;;;;;;;19.54;61.12;100032.69;5051701;28;20052;-78
2022/10/22 09:11:46;;;;;;;3.65;2.45;;;;;;;19.31;60.74;100044.94;5053437;28;20057;-89
2022/10/22 09:14:16;;;;;;;7.70;2.63;;;;;;;19.11;63.11;100041.47;5051982;28;20068;-81
2022/10/22 09:17:03;;;;;;;5.22;2.30;;;;;;;18.74;62.89;100039.31;5051658;28;20084;-78
2022/10/22 09:19:41;;;;;;;5.45;2.30;;;;;;;18.86;64.54;100053.22;5051637;28;20053;-80
2022/10/22 09:22:22;;;;;;;6.05;2.55;;;;;;;18.84;63.66;100043.50;5039416;28;20076;-78
2022/10/22 09:24:56;;;;;;;5.07;1.85;;;;;;;18.82;65.82;100045.91;5052343;28;20053;-78
2022/10/22 09:27:28;;;;;;;5.60;2.38;;;;;;;18.70;66.33;100046.09;5051787;28;20057;-78
2022/10/22 09:29:55;;;;;;;6.05;2.35;;;;;;;18.57;65.01;100056.78;5051960;28;20053;-78
2022/10/22 09:32:23;;;;;;;7.78;2.38;;;;;;;18.41;65.39;100059.72;5052392;28;20060;-78
2022/10/22 09:34:56;;;;;;;8.27;2.20;;;;;;;18.55;66.21;100057.16;5058450;28;20056;-78
2022/10/22 09:37:27;;;;;;;7.03;2.10;;;;;;;18.40;65.81;100064.56;5072015;28;20056;-78
2022/10/22 09:39:56;;;;;;;6.47;2.35;;;;;;;18.30;66.97;100064.41;5069249;28;20497;-78
2022/10/22 09:42:23;;;;;;;7.28;2.60;;;;;;;18.30;65.74;100070.03;5051809;28;20128;-78
2022/10/22 09:44:54;;;;;;;8.63;2.60;;;;;;;18.32;67.53;100078.94;5051680;28;20061;-79
2022/10/22 09:47:34;;;;;;;3.97;2.22;;;;;;;18.11;66.56;100077.34;5051678;28;20067;-80
2022/10/22 09:50:18;;;;;;;6.05;2.10;;;;;;;18.09;67.19;100076.91;5051744;28;20057;-81
2022/10/22 09:52:54;;;;;;;7.95;2.80;;;;;;;18.07;68.43;100086.94;5051243;28;20063;-80
2022/10/22 09:55:25;;;;;;;10.48;2.92;;;;;;;17.88;67.96;100082.16;5051475;28;20061;-84
2022/10/22 09:57:56;;;;;;;6.68;2.42;;;;;;;17.99;67.59;100088.81;5051254;28;20060;-80
2022/10/22 10:00:26;;;;;;;5.05;2.30;;;;;;;18.14;68.28;100096.34;5040779;28;20057;-87
2022/10/22 10:02:58;;;;;;;6.60;2.70;;;;;;;18.29;66.60;100088.97;5033769;28;20057;-80
2022/10/22 10:05:29;;;;;;;7.53;2.60;;;;;;;18.60;66.01;100096.31;5071122;28;20053;-79
2022/10/22 10:08:00;;;;;;;3.35;2.15;;;;;;;18.64;65.29;100094.34;5061911;28;20068;-87
2022/10/22 10:10:41;;;;;;;5.97;2.70;;;;;;;18.71;65.44;100093.69;5052913;28;20057;-87
2022/10/22 10:13:23;;;;;;;5.85;2.10;;;;;;;18.61;65.25;100105.59;5063720;28;20516;-90
2022/10/22 10:15:57;;;;;;;5.40;2.20;;;;;;;18.73;65.58;100104.56;5060225;28;20064;-81
2022/10/22 10:18:34;;;;;;;5.13;2.10;;;;;;;18.61;65.52;100105.59;5055366;28;20505;-82
2022/10/22 10:21:14;;;;;;;4.15;2.13;;;;;;;18.56;65.42;100103.94;5053717;28;20052;-83
2022/10/22 10:23:54;;;;;;;4.25;2.08;;;;;;;18.78;66.28;100095.78;5054945;28;20421;-84
2022/10/22 10:26:29;;;;;;;4.30;2.00;;;;;;;18.44;65.30;100109.75;5054979;28;20084;-85
2022/10/22 10:29:13;;;;;;;4.55;2.13;;;;;;;18.57;66.51;100110.38;5067664;28;20087;-84
2022/10/22 10:31:52;;;;;;;8.05;2.53;;;;;;;18.36;65.37;100105.19;5063143;28;20497;-83
2022/10/22 10:34:29;;;;;;;8.02;2.53;;;;;;;18.61;66.68;100111.25;5046232;28;20057;-82
2022/10/22 10:37:05;;;;;;;4.13;1.90;;;;;;;18.58;67.73;100111.97;5054461;28;20064;-83
2022/10/22 10:39:49;;;;;;;5.15;2.28;;;;;;;18.56;65.79;100120.84;5054308;28;20494;-81
2022/10/22 10:42:26;;;;;;;4.15;2.13;;;;;;;18.57;65.43;100122.47;5054368;28;20056;-82
2022/10/22 10:45:13;;;;;;;6.25;1.88;;;;;;;18.36;64.69;100119.28;5054306;28;20060;-81
2022/10/22 10:48:09;;;;;;;5.93;2.08;;;;;;;18.25;64.80;100121.91;5055148;28;20056;-81
2022/10/22 10:50:49;;;;;;;6.15;1.92;;;;;;;18.23;64.45;100119.47;5020123;28;20052;-81
2022/10/22 10:53:33;;;;;;;4.72;1.75;;;;;;;18.22;66.48;100129.09;5054129;28;20053;-82
2022/10/22 10:56:05;;;;;;;4.95;2.10;;;;;;;18.03;65.47;100126.31;5053950;28;20064;-81
2022/10/22 10:58:41;;;;;;;9.20;2.30;;;;;;;18.00;64.38;100132.72;5054518;28;20080;-82
2022/10/22 11:01:18;;;;;;;4.97;1.90;;;;;;;18.04;65.41;100137.25;5054090;28;20508;-81
2022/10/22 11:03:58;;;;;;;7.30;1.80;;;;;;;17.94;63.52;100145.47;5054341;28;20064;-81
2022/10/22 11:06:28;;;;;;;5.80;2.03;;;;;;;17.88;64.03;100141.34;5053913;28;20053;-81
2022/10/22 11:09:02;;;;;;;6.45;2.20;;;;;;;17.88;63.95;100149.78;5053465;28;20075;-81
2022/10/22 11:11:35;;;;;;;4.28;1.85;;;;;;;17.81;64.89;100145.59;5053830;28;20055;-81
2022/10/22 11:14:11;;;;;;;5.97;2.00;;;;;;;17.81;65.25;100148.44;5053791;28;20325;-81
2022/10/22 11:16:42;;;;;;;4.97;1.65;;;;;;;17.93;62.55;100147.50;5054151;28;20063;-81
2022/10/22 11:19:19;;;;;;;5.00;1.63;;;;;;;18.05;63.02;100140.88;5053858;28;20060;-81
2022/10/22 11:21:54;;;;;;;4.80;2.00;;;;;;;18.07;62.82;100129.22;5053197;28;20049;-81
2022/10/22 11:24:33;;;;;;;6.72;1.98;;;;;;;18.12;63.16;100134.53;5054166;28;20477;-82
2022/10/22 11:27:06;;;;;;;6.45;2.08;;;;;;;18.29;62.89;100138.88;5053649;28;20084;-81
2022/10/22 11:29:42;;;;;;;3.40;1.42;;;;;;;18.26;62.30;100129.97;5053636;28;20064;-81
2022/10/22 11:32:14;;;;;;;6.30;1.70;;;;;;;18.21;62.67;100133.13;5053791;28;20390;-81
2022/10/22 11:34:47;;;;;;;5.82;1.98;;;;;;;18.23;61.98;100139.19;5053643;28;20064;-82
2022/10/22 11:37:15;;;;;;;7.53;1.40;;;;;;;18.17;62.52;100135.06;5060132;28;20397;-82
2022/10/22 11:39:48;;;;;;;3.25;1.60;;;;;;;18.16;63.25;100141.88;5073275;28;20061;-82
2022/10/22 11:42:20;;;;;;;4.97;1.90;;;;;;;18.31;62.29;100153.41;5073382;28;20063;-81
2022/10/22 11:44:58;;;;;;;5.03;1.45;;;;;;;18.32;62.25;100144.59;5073831;28;20057;-81